Chanute Martin Johnson Airport
KCNU : now visible

Airfield :











YOU CAN JOIN US ON...

 
LOGIN :

Register | Disclaimer

   EN    FR    IT 

 









Legend :    VFR   Marginal VFR   IFR   Intensive IFR   Very Intensive IFR
Visi :
Ceiling :
>= 8 km
>= 3000ft
5 to 8 km
1000 to 3000 ft
1500m to 5 km
500 to 1000 ft
800 to 1500m
200 to 500 ft
< 800m
< 200 ft
Symbols :   Thunderstorms  Fog  Heavy snow  Heavy precipitations  Wind > 20 kt






- Airport Elevation : 1002 ft


KCNU - Chanute Martin Johnson

CURRENT METAR :
  • 220252Z AUTO 13005KT 10SM CLR M05/M15 A3041 RMK AO2 SLP312 T10501150 50008 TSNO

EXPIRED METARs :
  • 220152Z AUTO 13004KT 10SM CLR M04/M16 A3042 RMK AO2 SLP316 T10391161 TSNO
  • 220052Z AUTO 12005KT 10SM CLR M04/M16 A3039 RMK AO2 SLP307 T10391156 TSNO
  • 212352Z AUTO 13004KT 10SM CLR M03/M16 A3039 RMK AO2 SLP304 T10281161 10000 21050 56006 TSNO

TAF KCNU
Valid from the 22 at 00:00 until the 23 at 00:00 UTC


212321Z 2200/2224 17006KT P6SM BKN200
FM221000 22006KT P6SM SCT100 OVC200
FM221600 27006KT P6SM BKN200
FM222100 22005KT P6SM SCT250
KZKC FIR / North America



MET'MAP, your aeronautical weather chart ! - Copyright ORBIFLY December 2007 - Disclaimer

ORBIFLY MET'MAP TEAM :

Programming & Development : Alexandra Zaïnal
Concept & original design : Baudouin d'Aumeries
Assistance for programming : Marc-Olivier Méhu
Technical & hardware support : Manuel Goepfert

Contact : metmap@orbifly.com




SOURCES & CREDITS :

   NOAA       Earth
Advisory